Pagrindinis puslapis
METAR-TAF:

METAR-TAF

Oro uostai :

Parnaíba, Piauí, Brazilija

platuma: 02-55S, ilguma: 041-45W, Aukštis: 5 m

Dabartinis oras

Ataskaita buvo paskelbta 3 valandos ir 33 minutes, ne 19:45 UTC
Vėjas 15 kt iš Rytų/Šiaurės Rytų
Temperatūra 29°C
Drėgmė 70%
Slėgis 1009 hPa
Matomumas 10 km arba daugiau
Mažai debesys ne aukštis 2000 ft

METAR: SBPB 161945Z 07015KT 9999 FEW020 29/23 Q1009

Laikas: 20:18 (23:18 UTC)

Prognozė

Ataskaita buvo paskelbta 7 valandos ir 18 minutes, ne 16:00 UTC
Prognozė galioja nuo 16 metu 18 UTC su 17 metu 06 UTC
Vėjas 10 kt iš Rytų
Matomumas 10 km arba daugiau
Mažai debesys ne aukštis 2300 ft
Tapsmas
nuo 16 metu 19 UTC su 16 metu 21 UTC
Vėjas 10 kt iš Rytų/Šiaurės Rytų
Matomumas 10 km arba daugiau
nėra debesų žemiau 1500 m ir nėra kamuolinių lietaus debesų

TAF: SBPB 161600Z 1618/1706 08010KT 9999 FEW023 TX30/1618Z TN25/1706Z BECMG 1619/1621 06010KT CAVOK RMK PAY

Orai ataskaitas ir orų prognozės (METAR, TAF).

turimą stotys yra geltonos ir raudonos taškus žemėlapyje.

Perkelti pele per norėdami pamatyti stoties vardą.

Tada spustelėkite, norėdami matyti oro stebėjimo ir prognozės.

Norėdami pakeisti žemėlapį: spustelėkite ant žalios mygtukų su juodo kryžiaus žemyn,; žalią mygtuką su brūkšneliu, jei norite nutolinti; arba žalių rodyklių gretimoms žemėlapius.


METAR-TAF: